createdAt,value
2023-03-21T00:00:32.641Z,18.77
2023-03-21T00:01:34.291Z,19.70
2023-03-21T00:02:35.914Z,18.10
2023-03-21T00:03:38.115Z,19.00
2023-03-21T00:06:11.290Z,18.13
2023-03-21T00:07:12.925Z,16.90
2023-03-21T00:08:15.260Z,18.85
2023-03-21T00:09:17.313Z,17.67
2023-03-21T00:10:29.738Z,19.38
2023-03-21T00:11:39.133Z,18.02
2023-03-21T00:12:41.056Z,17.13
2023-03-21T00:13:43.680Z,18.52
2023-03-21T00:14:45.586Z,17.52
2023-03-21T00:16:18.286Z,17.13
2023-03-21T00:17:16.542Z,16.85
2023-03-21T00:18:18.191Z,17.42
2023-03-21T00:19:21.969Z,20.13
2023-03-21T00:20:23.905Z,18.33
2023-03-21T00:22:50.280Z,16.90
2023-03-21T00:23:52.486Z,18.67
2023-03-21T00:24:54.985Z,17.80
2023-03-21T00:25:56.855Z,17.10
2023-03-21T00:27:10.687Z,18.42
2023-03-21T00:28:20.374Z,17.38
2023-03-21T00:29:21.988Z,18.08
2023-03-21T00:30:24.162Z,19.42
2023-03-21T00:31:25.877Z,17.13
2023-03-21T00:32:27.445Z,17.15
2023-03-21T00:33:29.962Z,17.02
2023-03-21T00:34:43.614Z,18.33
2023-03-21T00:36:01.817Z,18.75
2023-03-21T00:37:07.366Z,17.63
2023-03-21T00:38:09.570Z,18.40
2023-03-21T00:39:11.942Z,17.40
2023-03-21T00:40:26.709Z,18.58
2023-03-21T00:41:42.018Z,17.98
2023-03-21T00:42:44.606Z,18.05
2023-03-21T00:43:46.337Z,17.10
2023-03-21T00:44:48.471Z,18.02
2023-03-21T00:45:51.614Z,19.60
2023-03-21T00:47:06.220Z,17.92
2023-03-21T00:48:09.013Z,18.27
2023-03-21T00:49:10.698Z,17.95
2023-03-21T00:50:12.768Z,16.52
2023-03-21T00:51:26.001Z,18.27
2023-03-21T00:52:40.110Z,17.20
2023-03-21T00:53:44.084Z,16.83
2023-03-21T00:54:46.266Z,16.83
2023-03-21T00:55:48.761Z,18.17
2023-03-21T00:56:51.749Z,17.80
2023-03-21T00:58:01.486Z,18.75
2023-03-21T00:59:04.029Z,17.77
2023-03-21T01:00:08.012Z,17.48
2023-03-21T01:01:09.874Z,17.08
2023-03-21T01:02:22.805Z,17.75
2023-03-21T01:03:26.719Z,17.40
2023-03-21T01:04:29.215Z,17.30
2023-03-21T01:05:50.257Z,16.25
2023-03-21T01:06:53.291Z,17.13
2023-03-21T01:07:55.964Z,17.00
2023-03-21T01:08:58.004Z,17.67
2023-03-21T01:09:59.753Z,18.52
2023-03-21T01:11:04.733Z,16.77
2023-03-21T01:12:06.516Z,16.25
2023-03-21T01:13:09.534Z,17.48
2023-03-21T01:14:24.167Z,16.60
2023-03-21T01:15:25.844Z,15.93
2023-03-21T01:16:27.845Z,16.90
2023-03-21T01:17:29.583Z,16.33
2023-03-21T01:18:31.955Z,16.05
2023-03-21T01:19:48.711Z,15.90
2023-03-21T01:20:53.330Z,15.25
2023-03-21T01:21:56.773Z,16.48
2023-03-21T01:22:58.322Z,16.80
2023-03-21T01:24:00.160Z,17.98
2023-03-21T01:25:19.364Z,18.20
2023-03-21T01:26:23.406Z,16.63
2023-03-21T01:27:25.122Z,17.17
2023-03-21T01:28:28.750Z,17.52
2023-03-21T01:29:30.547Z,15.82
2023-03-21T01:30:36.946Z,16.95
2023-03-21T01:31:43.803Z,16.83
2023-03-21T01:32:45.463Z,15.95
2023-03-21T01:33:47.617Z,16.88
2023-03-21T01:34:49.491Z,17.40
2023-03-21T01:35:57.565Z,16.80
2023-03-21T01:37:08.189Z,16.55
2023-03-21T01:38:10.795Z,16.13
2023-03-21T01:39:12.610Z,15.95
2023-03-21T01:40:23.887Z,16.45
2023-03-21T01:41:44.048Z,16.60
2023-03-21T01:42:46.576Z,17.17
2023-03-21T01:43:48.876Z,16.20
2023-03-21T01:45:03.387Z,16.95
2023-03-21T01:46:05.201Z,16.98
2023-03-21T01:47:12.177Z,17.45
2023-03-21T01:48:16.062Z,17.63
2023-03-21T01:49:26.679Z,16.42
2023-03-21T01:50:28.480Z,17.48
2023-03-21T01:51:34.291Z,16.20
2023-03-21T01:52:39.291Z,18.17
2023-03-21T01:53:42.032Z,15.95
2023-03-21T01:54:47.749Z,16.60
2023-03-21T01:55:49.910Z,15.52
2023-03-21T01:56:55.030Z,16.08
2023-03-21T01:58:06.676Z,15.55
2023-03-21T01:59:13.462Z,16.42
2023-03-21T02:00:17.020Z,16.40
2023-03-21T02:01:19.060Z,17.02
2023-03-21T02:02:31.472Z,16.20
2023-03-21T02:03:38.819Z,14.55
2023-03-21T02:04:41.021Z,15.43
2023-03-21T02:05:52.041Z,15.98
2023-03-21T02:07:17.919Z,16.10
2023-03-21T02:08:25.896Z,15.68
2023-03-21T02:09:40.458Z,15.45
2023-03-21T02:10:44.209Z,17.75
2023-03-21T02:11:46.774Z,15.07
2023-03-21T02:12:48.715Z,15.90
2023-03-21T02:13:55.831Z,14.55
2023-03-21T02:15:02.937Z,14.05
2023-03-21T02:16:58.646Z,15.82
2023-03-21T02:18:12.160Z,14.75
2023-03-21T02:19:37.180Z,15.85
2023-03-21T02:21:13.105Z,13.75
2023-03-21T02:22:52.394Z,13.73
2023-03-21T02:24:18.680Z,13.43
2023-03-21T02:25:44.698Z,15.05
2023-03-21T02:27:01.359Z,14.85
2023-03-21T02:28:03.091Z,14.10
2023-03-21T02:29:45.049Z,15.52
2023-03-21T02:31:14.514Z,15.50
2023-03-21T02:32:37.385Z,15.60
2023-03-21T02:33:48.847Z,15.60
2023-03-21T02:35:17.642Z,13.27
2023-03-21T02:36:38.227Z,13.88
2023-03-21T02:37:59.836Z,15.05
2023-03-21T02:39:26.504Z,14.35
2023-03-21T02:41:10.115Z,13.10
2023-03-21T02:42:21.509Z,14.35
2023-03-21T02:43:26.067Z,14.48
2023-03-21T02:44:43.715Z,14.23
2023-03-21T02:45:54.412Z,14.35
2023-03-21T02:47:06.074Z,14.73
2023-03-21T02:48:25.459Z,14.35
2023-03-21T02:50:51.668Z,13.73
2023-03-21T02:51:54.830Z,13.05
2023-03-21T02:52:58.032Z,14.88
2023-03-21T02:54:26.516Z,14.43
2023-03-21T02:55:29.609Z,13.95
2023-03-21T02:56:33.799Z,14.15
2023-03-21T02:57:42.528Z,14.65
2023-03-21T02:58:46.840Z,14.93
2023-03-21T02:59:55.692Z,14.70
2023-03-21T03:01:00.555Z,14.80
2023-03-21T03:02:03.325Z,15.35
2023-03-21T03:03:09.903Z,14.80
2023-03-21T03:04:38.664Z,15.45
2023-03-21T03:05:50.711Z,14.30
2023-03-21T03:07:01.557Z,13.82
2023-03-21T03:08:36.189Z,14.98
2023-03-21T03:10:20.488Z,15.00
2023-03-21T03:11:29.205Z,14.18
2023-03-21T03:12:52.298Z,15.23
2023-03-21T03:14:25.198Z,14.07
2023-03-21T03:15:57.083Z,13.38
2023-03-21T03:17:04.537Z,13.90
2023-03-21T03:18:18.716Z,13.88
2023-03-21T03:19:34.459Z,14.85
2023-03-21T03:20:47.925Z,14.00
2023-03-21T03:22:02.479Z,14.60
2023-03-21T03:23:13.428Z,15.25
2023-03-21T03:24:29.583Z,15.00
2023-03-21T03:25:44.287Z,14.63
2023-03-21T03:26:48.533Z,14.90
2023-03-21T03:27:52.795Z,14.43
2023-03-21T03:29:00.488Z,15.10
2023-03-21T03:30:03.802Z,14.57
2023-03-21T03:31:09.523Z,14.40
2023-03-21T03:32:25.729Z,14.77
2023-03-21T03:33:29.277Z,15.20
2023-03-21T03:34:39.778Z,15.25
2023-03-21T03:35:41.392Z,13.93
2023-03-21T03:36:51.767Z,14.85
2023-03-21T03:38:00.968Z,13.88
2023-03-21T03:39:05.712Z,14.85
2023-03-21T03:40:17.262Z,14.57
2023-03-21T03:41:25.654Z,15.07
2023-03-21T03:42:42.337Z,14.32
2023-03-21T03:43:48.854Z,13.27
2023-03-21T03:44:50.788Z,13.25
2023-03-21T03:46:00.224Z,14.43
2023-03-21T03:47:31.689Z,13.25
2023-03-21T03:48:46.681Z,14.25
2023-03-21T03:49:57.477Z,14.25
2023-03-21T03:51:07.511Z,14.10
2023-03-21T03:52:28.389Z,15.52
2023-03-21T03:53:33.665Z,16.02
2023-03-21T03:54:44.811Z,13.48
2023-03-21T03:55:47.881Z,14.45
2023-03-21T03:56:50.132Z,14.68
2023-03-21T03:57:53.145Z,13.88
2023-03-21T03:58:56.136Z,15.50
2023-03-21T03:59:58.388Z,15.30
2023-03-21T04:00:59.918Z,14.82
2023-03-21T04:02:01.545Z,16.48
2023-03-21T04:03:03.609Z,14.18
2023-03-21T04:04:12.984Z,15.07
2023-03-21T04:05:15.395Z,16.50
2023-03-21T04:06:18.556Z,15.60
2023-03-21T04:07:21.651Z,15.45
2023-03-21T04:08:23.503Z,15.15
2023-03-21T04:09:42.550Z,17.20
2023-03-21T04:10:45.862Z,16.27
2023-03-21T04:11:47.974Z,15.15
2023-03-21T04:12:50.202Z,16.52
2023-03-21T04:13:52.090Z,14.48
2023-03-21T04:14:56.974Z,15.32
2023-03-21T04:16:04.908Z,16.15
2023-03-21T04:17:06.597Z,16.35
2023-03-21T04:18:08.188Z,15.05
2023-03-21T04:19:09.786Z,15.35
2023-03-21T04:20:16.714Z,16.88
2023-03-21T04:21:25.946Z,16.33
2023-03-21T04:22:28.217Z,14.85
2023-03-21T04:23:30.109Z,13.23
2023-03-21T04:24:34.000Z,15.65
2023-03-21T04:25:38.733Z,16.40
2023-03-21T04:26:42.038Z,14.20
2023-03-21T04:27:45.535Z,13.80
2023-03-21T04:28:47.233Z,15.45
2023-03-21T04:29:48.776Z,15.02
2023-03-21T04:31:01.420Z,14.50
2023-03-21T04:32:16.252Z,15.95
2023-03-21T04:33:18.039Z,13.65
2023-03-21T04:34:24.179Z,14.23
2023-03-21T04:35:25.856Z,15.05
2023-03-21T04:36:33.510Z,14.88
2023-03-21T04:37:35.718Z,14.05
2023-03-21T04:38:37.579Z,14.32
2023-03-21T04:39:39.313Z,14.65
2023-03-21T04:40:40.913Z,13.73
2023-03-21T04:41:44.536Z,15.40
2023-03-21T04:42:48.156Z,16.35
2023-03-21T04:43:49.730Z,14.00
2023-03-21T04:44:51.538Z,14.77
2023-03-21T04:45:53.111Z,14.55
2023-03-21T04:46:54.792Z,15.32
2023-03-21T04:47:57.467Z,15.95
2023-03-21T04:48:59.457Z,15.27
2023-03-21T04:50:01.082Z,14.63
2023-03-21T04:51:02.687Z,14.98
2023-03-21T04:52:04.422Z,13.93
2023-03-21T04:53:06.030Z,15.20
2023-03-21T04:55:10.429Z,15.07
2023-03-21T04:56:12.378Z,13.45
2023-03-21T04:57:14.620Z,13.95
2023-03-21T04:58:16.264Z,13.40
2023-03-21T04:59:19.008Z,14.05
2023-03-21T05:00:21.128Z,13.13
2023-03-21T05:01:22.897Z,12.80
2023-03-21T05:02:24.569Z,12.93
2023-03-21T05:03:28.604Z,13.65
2023-03-21T05:04:31.144Z,13.32
2023-03-21T05:05:32.757Z,13.95
2023-03-21T05:06:34.664Z,13.55
2023-03-21T05:07:36.330Z,14.38
2023-03-21T05:08:37.966Z,14.05
2023-03-21T05:09:39.723Z,14.02
2023-03-21T05:10:41.318Z,15.63
2023-03-21T05:11:43.432Z,14.65
2023-03-21T05:12:45.011Z,14.25
2023-03-21T05:13:46.761Z,14.98
2023-03-21T05:14:48.459Z,14.60
2023-03-21T05:15:50.265Z,13.90
2023-03-21T05:16:57.585Z,15.32
2023-03-21T05:17:59.328Z,15.40
2023-03-21T05:19:05.067Z,14.25
2023-03-21T05:20:09.595Z,14.10
2023-03-21T05:21:11.161Z,14.20
2023-03-21T05:22:14.394Z,14.52
2023-03-21T05:23:18.669Z,15.85
2023-03-21T05:24:21.983Z,14.65
2023-03-21T05:25:35.603Z,15.18
2023-03-21T05:26:37.528Z,13.05
2023-03-21T05:27:45.397Z,14.15
2023-03-21T05:28:48.188Z,13.57
2023-03-21T05:29:49.926Z,13.90
2023-03-21T05:30:54.454Z,14.18
2023-03-21T05:31:56.782Z,13.90
2023-03-21T05:32:58.524Z,14.07
2023-03-21T05:34:00.785Z,14.18
2023-03-21T05:35:02.560Z,14.23
2023-03-21T05:36:04.424Z,14.80
2023-03-21T05:37:06.086Z,13.30
2023-03-21T05:38:08.071Z,14.65
2023-03-21T05:39:09.857Z,16.33
2023-03-21T05:40:12.419Z,16.52
2023-03-21T05:41:17.251Z,16.88
2023-03-21T05:42:21.275Z,15.02
2023-03-21T05:43:23.376Z,16.85
2023-03-21T05:44:24.881Z,16.50
2023-03-21T05:45:27.323Z,16.30
2023-03-21T05:46:29.014Z,16.30
2023-03-21T05:47:30.852Z,15.52
2023-03-21T05:48:32.434Z,17.15
2023-03-21T05:49:34.086Z,16.45
2023-03-21T05:50:35.909Z,14.35
2023-03-21T05:51:37.549Z,15.18
2023-03-21T05:52:39.799Z,15.27
2023-03-21T05:53:41.452Z,16.20
2023-03-21T05:54:43.117Z,15.45
2023-03-21T05:55:44.768Z,14.77
2023-03-21T05:56:46.294Z,15.07
2023-03-21T05:57:47.903Z,14.63
2023-03-21T05:58:49.446Z,14.60
2023-03-21T05:59:51.179Z,15.07
2023-03-21T06:00:52.790Z,15.65
2023-03-21T06:01:54.418Z,16.27
2023-03-21T06:02:56.203Z,16.48
2023-03-21T06:03:57.843Z,17.02
2023-03-21T06:04:59.463Z,16.20
2023-03-21T06:06:01.100Z,17.38
2023-03-21T06:07:02.819Z,15.20
2023-03-21T06:08:04.566Z,16.13
2023-03-21T06:09:06.863Z,16.10
2023-03-21T06:10:09.215Z,15.82
2023-03-21T06:11:39.599Z,15.73
2023-03-21T06:12:43.073Z,15.38
2023-03-21T06:13:44.688Z,14.65
2023-03-21T06:14:46.241Z,15.98
2023-03-21T06:15:47.850Z,14.68
2023-03-21T06:16:50.744Z,15.20
2023-03-21T06:18:54.960Z,15.40
2023-03-21T06:19:56.673Z,15.50
2023-03-21T06:20:58.938Z,16.08
2023-03-21T06:22:00.567Z,16.55
2023-03-21T06:23:02.225Z,15.05
2023-03-21T06:24:03.898Z,16.88
2023-03-21T06:25:07.707Z,15.68
2023-03-21T06:26:09.342Z,15.60
2023-03-21T06:27:11.070Z,16.02
2023-03-21T06:28:12.657Z,14.98
2023-03-21T06:29:14.914Z,15.70
2023-03-21T06:30:18.011Z,15.43
2023-03-21T06:31:22.763Z,14.88
2023-03-21T06:32:24.528Z,16.70
2023-03-21T06:33:26.352Z,15.48
2023-03-21T06:34:28.314Z,16.75
2023-03-21T06:35:29.983Z,16.27
2023-03-21T06:36:31.525Z,16.90
2023-03-21T06:37:33.241Z,15.80
2023-03-21T06:38:38.134Z,17.08
2023-03-21T06:39:39.835Z,17.02
2023-03-21T06:40:41.480Z,17.75
2023-03-21T06:41:43.101Z,16.92
2023-03-21T06:42:44.678Z,17.35
2023-03-21T06:43:46.415Z,17.98
2023-03-21T06:44:48.039Z,18.30
2023-03-21T06:45:49.678Z,17.02
2023-03-21T06:46:52.428Z,18.10
2023-03-21T06:47:54.101Z,17.88
2023-03-21T06:48:55.766Z,17.92
2023-03-21T06:49:57.385Z,19.50
2023-03-21T06:50:59.094Z,19.90
2023-03-21T06:52:00.846Z,19.65
2023-03-21T06:53:02.706Z,18.42
2023-03-21T06:54:04.452Z,19.83
2023-03-21T06:55:06.547Z,18.67
2023-03-21T06:56:10.385Z,20.63
2023-03-21T06:57:13.592Z,19.60
2023-03-21T06:58:15.286Z,17.95
2023-03-21T06:59:17.389Z,20.13
2023-03-21T07:00:20.000Z,18.35
2023-03-21T07:01:22.213Z,20.60
2023-03-21T07:02:23.970Z,18.95
2023-03-21T07:03:25.866Z,19.63
2023-03-21T07:04:27.741Z,20.77
2023-03-21T07:05:29.347Z,21.27
2023-03-21T07:06:30.883Z,21.02
2023-03-21T07:07:32.565Z,21.17
2023-03-21T07:08:34.612Z,20.40
2023-03-21T07:09:36.773Z,20.48
2023-03-21T07:10:39.730Z,20.95
2023-03-21T07:11:41.633Z,21.50
2023-03-21T07:12:43.307Z,20.38
2023-03-21T07:13:44.961Z,20.95
2023-03-21T07:14:46.587Z,21.77
2023-03-21T07:15:48.258Z,21.13
2023-03-21T07:16:50.270Z,19.92
2023-03-21T07:17:52.392Z,19.95
2023-03-21T07:18:54.153Z,21.17
2023-03-21T07:19:55.875Z,19.33
2023-03-21T07:20:57.845Z,20.02
2023-03-21T07:22:00.361Z,18.77
2023-03-21T07:23:02.033Z,20.23
2023-03-21T07:24:03.674Z,18.88
2023-03-21T07:25:05.833Z,18.90
2023-03-21T07:26:07.765Z,19.42
2023-03-21T07:27:09.363Z,17.80
2023-03-21T07:28:11.091Z,19.77
2023-03-21T07:29:12.672Z,19.15
2023-03-21T07:30:15.046Z,19.25
2023-03-21T07:31:17.649Z,19.70
2023-03-21T07:32:19.264Z,18.25
2023-03-21T07:33:23.165Z,19.48
2023-03-21T07:34:24.848Z,18.02
2023-03-21T07:35:26.787Z,19.88
2023-03-21T07:36:28.538Z,17.30
2023-03-21T07:37:30.159Z,19.17
2023-03-21T07:38:31.846Z,17.38
2023-03-21T07:39:34.915Z,19.45
2023-03-21T07:40:36.844Z,19.00
2023-03-21T07:41:38.688Z,19.10
2023-03-21T07:42:41.533Z,18.35
2023-03-21T07:43:43.435Z,19.00
2023-03-21T07:44:45.265Z,18.13
2023-03-21T07:45:46.909Z,18.05
2023-03-21T07:46:48.847Z,16.58
2023-03-21T07:47:50.467Z,17.10
2023-03-21T07:48:52.078Z,17.63
2023-03-21T07:49:53.670Z,17.90
2023-03-21T07:50:56.162Z,18.90
2023-03-21T07:51:57.866Z,18.25
2023-03-21T07:52:59.653Z,17.75
2023-03-21T07:54:02.264Z,18.48
2023-03-21T07:55:04.488Z,20.13
2023-03-21T07:56:06.446Z,20.60
2023-03-21T07:57:08.102Z,18.58
2023-03-21T07:58:09.700Z,17.88
2023-03-21T07:59:11.345Z,20.23
2023-03-21T08:00:22.913Z,19.50
2023-03-21T08:01:25.414Z,19.88
2023-03-21T08:02:27.249Z,20.50
2023-03-21T08:03:29.994Z,19.83
2023-03-21T08:04:32.390Z,19.83
2023-03-21T08:05:37.565Z,19.40
2023-03-21T08:06:40.046Z,19.98
2023-03-21T08:07:41.706Z,18.90
2023-03-21T08:08:43.285Z,21.15
2023-03-21T08:09:44.927Z,19.30
2023-03-21T08:10:46.912Z,20.70
2023-03-21T08:11:48.550Z,20.15
2023-03-21T08:12:50.483Z,20.73
2023-03-21T08:13:52.071Z,21.40
2023-03-21T08:14:53.602Z,20.15
2023-03-21T08:15:55.423Z,20.63
2023-03-21T08:16:57.051Z,22.40
2023-03-21T08:18:00.430Z,21.27
2023-03-21T08:19:02.089Z,21.30
2023-03-21T08:20:09.087Z,21.55
2023-03-21T08:21:10.798Z,21.02
2023-03-21T08:22:12.504Z,22.50
2023-03-21T08:23:14.171Z,21.75
2023-03-21T08:24:16.568Z,20.15
2023-03-21T08:25:20.083Z,21.92
2023-03-21T08:26:25.331Z,21.13
2023-03-21T08:27:27.198Z,21.60
2023-03-21T08:28:28.847Z,22.83
2023-03-21T08:29:30.463Z,21.15
2023-03-21T08:30:32.204Z,23.48
2023-03-21T08:31:33.870Z,21.73
2023-03-21T08:32:35.558Z,23.23
2023-03-21T08:33:37.716Z,23.50
2023-03-21T08:34:39.329Z,21.38
2023-03-21T08:35:41.550Z,20.88
2023-03-21T08:36:43.852Z,21.88
2023-03-21T08:37:45.490Z,21.45
2023-03-21T08:38:48.567Z,21.27
2023-03-21T08:39:50.445Z,21.33
2023-03-21T08:40:52.136Z,20.90
2023-03-21T08:41:53.732Z,21.48
2023-03-21T08:42:55.608Z,21.35
2023-03-21T08:43:57.327Z,21.40
2023-03-21T08:44:58.921Z,23.38
2023-03-21T08:46:00.713Z,22.95
2023-03-21T08:47:02.361Z,21.10
2023-03-21T08:48:04.254Z,22.50
2023-03-21T08:49:06.362Z,19.90
2023-03-21T08:50:10.220Z,21.25
2023-03-21T08:51:11.752Z,20.45
2023-03-21T08:52:13.294Z,20.83
2023-03-21T08:53:14.901Z,21.00
2023-03-21T08:54:20.365Z,20.40
2023-03-21T08:55:22.111Z,20.15
2023-03-21T08:56:23.660Z,20.75
2023-03-21T08:57:25.656Z,21.08
2023-03-21T08:58:27.337Z,21.42
2023-03-21T08:59:28.978Z,21.58
2023-03-21T09:00:30.883Z,19.95
2023-03-21T09:01:32.817Z,18.25
2023-03-21T09:02:34.541Z,18.77
2023-03-21T09:03:36.147Z,18.95
2023-03-21T09:04:38.033Z,19.38
2023-03-21T09:05:39.990Z,19.85
2023-03-21T09:06:45.674Z,21.48
2023-03-21T09:07:47.700Z,20.60
2023-03-21T09:08:53.538Z,21.08
2023-03-21T09:10:08.413Z,19.38
2023-03-21T09:11:16.953Z,18.98
2023-03-21T09:12:18.633Z,18.65
2023-03-21T09:13:20.281Z,17.85
2023-03-21T09:14:28.237Z,18.27
2023-03-21T09:15:30.308Z,17.90
2023-03-21T09:16:32.630Z,17.65
2023-03-21T09:17:34.591Z,18.63
2023-03-21T09:18:45.419Z,19.58
2023-03-21T09:19:47.394Z,18.30
2023-03-21T09:20:50.511Z,16.88
2023-03-21T09:21:53.963Z,17.45
2023-03-21T09:22:56.025Z,17.23
2023-03-21T09:24:00.103Z,16.58
2023-03-21T09:25:04.374Z,16.80
2023-03-21T09:26:06.777Z,18.75
2023-03-21T09:27:08.627Z,16.40
2023-03-21T09:28:10.566Z,16.70
2023-03-21T09:29:12.480Z,15.23
2023-03-21T09:30:16.729Z,15.13
2023-03-21T09:31:22.965Z,15.73
2023-03-21T09:32:28.408Z,16.00
2023-03-21T09:33:30.167Z,16.00
2023-03-21T09:34:31.950Z,16.55
2023-03-21T09:35:33.593Z,17.38
2023-03-21T09:36:36.278Z,16.60
2023-03-21T09:37:42.314Z,16.00
2023-03-21T09:38:47.613Z,15.90
2023-03-21T09:39:51.383Z,17.00
2023-03-21T09:40:55.975Z,14.68
2023-03-21T09:42:00.892Z,16.17
2023-03-21T09:43:56.849Z,16.73
2023-03-21T09:45:13.068Z,16.83
2023-03-21T09:46:47.419Z,16.67
2023-03-21T09:47:54.065Z,17.25
2023-03-21T09:49:01.663Z,16.27
2023-03-21T09:50:20.067Z,16.08
2023-03-21T09:51:23.787Z,14.93
2023-03-21T09:52:43.990Z,16.75
2023-03-21T09:53:50.257Z,15.98
2023-03-21T09:54:53.055Z,16.48
2023-03-21T09:55:55.002Z,15.38
2023-03-21T09:57:01.795Z,16.42
2023-03-21T09:58:29.136Z,17.15
2023-03-21T10:00:46.384Z,15.65
2023-03-21T10:01:49.449Z,15.77
2023-03-21T10:02:56.951Z,14.93
2023-03-21T10:04:03.367Z,14.90
2023-03-21T10:05:21.816Z,15.23
2023-03-21T10:06:31.953Z,17.58
2023-03-21T10:07:38.900Z,15.40
2023-03-21T10:08:43.025Z,17.33
2023-03-21T10:09:46.882Z,16.92
2023-03-21T10:10:51.674Z,18.33
2023-03-21T10:12:01.819Z,16.35
2023-03-21T10:13:07.394Z,15.18
2023-03-21T10:14:18.940Z,16.50
2023-03-21T10:15:23.831Z,15.63
2023-03-21T10:16:34.349Z,16.05
2023-03-21T10:17:43.778Z,16.10
2023-03-21T10:18:46.995Z,16.67
2023-03-21T10:20:01.651Z,15.80
2023-03-21T10:21:05.167Z,15.18
2023-03-21T10:22:08.567Z,14.45
2023-03-21T10:23:16.852Z,14.63
2023-03-21T10:24:24.382Z,14.50
2023-03-21T10:25:38.700Z,13.35
2023-03-21T10:26:40.631Z,14.73
2023-03-21T10:27:42.951Z,12.23
2023-03-21T10:28:53.065Z,14.15
2023-03-21T10:29:57.573Z,12.45
2023-03-21T10:31:04.545Z,12.20
2023-03-21T10:32:09.459Z,12.95
2023-03-21T10:33:26.506Z,13.45
2023-03-21T10:34:38.053Z,13.23
2023-03-21T10:35:42.488Z,12.77
2023-03-21T10:36:44.842Z,13.63
2023-03-21T10:37:47.031Z,13.10
2023-03-21T10:39:21.361Z,13.07
2023-03-21T10:40:23.009Z,12.70
2023-03-21T10:41:24.657Z,13.38
2023-03-21T10:42:32.980Z,14.65
2023-03-21T10:43:38.006Z,13.65
2023-03-21T10:44:39.684Z,12.20
2023-03-21T10:45:41.599Z,11.93
2023-03-21T10:46:57.708Z,13.35
2023-03-21T10:47:59.604Z,12.10
2023-03-21T10:49:01.864Z,13.07
2023-03-21T10:50:08.998Z,10.73
2023-03-21T10:51:18.376Z,11.63
2023-03-21T10:53:35.773Z,12.07
2023-03-21T10:54:37.433Z,10.70
2023-03-21T10:55:42.032Z,11.10
2023-03-21T10:56:51.510Z,11.23
2023-03-21T10:57:57.737Z,11.70
2023-03-21T10:59:01.628Z,11.30
2023-03-21T11:00:15.044Z,10.18
2023-03-21T11:01:30.229Z,8.95
2023-03-21T11:02:36.257Z,8.68
2023-03-21T11:03:43.658Z,10.48
2023-03-21T11:04:46.415Z,9.70
2023-03-21T11:05:49.101Z,9.95
2023-03-21T11:07:07.647Z,9.50
2023-03-21T11:08:18.888Z,10.25
2023-03-21T11:09:26.192Z,10.85
2023-03-21T11:10:35.774Z,11.18
2023-03-21T11:11:39.993Z,10.05
2023-03-21T11:12:48.144Z,9.80
2023-03-21T11:13:57.533Z,9.50
2023-03-21T11:15:24.981Z,7.28
2023-03-21T11:16:41.979Z,5.85
2023-03-21T11:17:45.459Z,6.55
2023-03-21T11:18:51.386Z,8.98
2023-03-21T11:19:57.548Z,6.93
2023-03-21T11:21:11.963Z,6.47
2023-03-21T11:22:13.756Z,7.53
2023-03-21T11:23:16.089Z,6.05
2023-03-21T11:24:18.901Z,6.13
2023-03-21T11:26:37.585Z,5.75
2023-03-21T11:27:49.529Z,7.20
2023-03-21T11:28:54.508Z,5.50
2023-03-21T11:29:57.634Z,5.25
2023-03-21T11:31:02.279Z,5.10
2023-03-21T11:32:21.133Z,5.47
2023-03-21T11:33:27.919Z,4.72
2023-03-21T11:35:16.317Z,5.97
2023-03-21T11:36:18.981Z,5.00
2023-03-21T11:37:28.094Z,4.75
2023-03-21T11:38:40.252Z,6.40
2023-03-21T11:39:44.285Z,5.38
2023-03-21T11:40:54.883Z,5.57
2023-03-21T11:41:56.549Z,5.15
2023-03-21T11:42:58.944Z,4.00
2023-03-21T11:44:01.986Z,3.45
2023-03-21T11:45:12.290Z,4.07
2023-03-21T11:46:14.962Z,5.55
2023-03-21T11:47:16.633Z,4.72
2023-03-21T11:48:18.338Z,3.38
2023-03-21T11:49:21.332Z,3.15
2023-03-21T11:50:32.788Z,3.28
2023-03-21T11:51:41.277Z,4.57
2023-03-21T11:52:52.348Z,4.72
2023-03-21T11:54:19.847Z,4.57
2023-03-21T11:55:33.506Z,4.50
2023-03-21T11:56:49.475Z,5.10
2023-03-21T11:57:54.835Z,4.93
2023-03-21T11:59:16.561Z,4.35
2023-03-21T12:00:26.343Z,4.25
2023-03-21T12:01:35.136Z,3.95
2023-03-21T12:02:57.860Z,4.60
2023-03-21T12:04:21.327Z,5.28
2023-03-21T12:06:02.304Z,6.13
2023-03-21T12:07:21.961Z,5.72
2023-03-21T12:08:35.529Z,5.57
2023-03-21T12:09:58.642Z,5.47
2023-03-21T12:11:12.681Z,5.97
2023-03-21T12:12:14.241Z,5.85
2023-03-21T12:13:26.301Z,5.38
2023-03-21T12:14:36.860Z,5.80
2023-03-21T12:15:44.403Z,6.13
2023-03-21T12:17:03.931Z,5.60
2023-03-21T12:18:24.421Z,5.75
2023-03-21T12:19:53.374Z,5.30
2023-03-21T12:21:15.374Z,4.72
2023-03-21T12:22:31.122Z,4.38
2023-03-21T12:23:44.627Z,4.53
2023-03-21T12:24:57.328Z,4.40
2023-03-21T12:26:23.375Z,4.53
2023-03-21T12:27:49.534Z,3.85
2023-03-21T12:28:53.772Z,4.20
2023-03-21T12:30:23.541Z,4.38
2023-03-21T12:31:30.928Z,4.60
2023-03-21T12:32:58.016Z,3.83
2023-03-21T12:34:12.626Z,4.25
2023-03-21T12:35:44.628Z,3.65
2023-03-21T12:37:21.530Z,3.17
2023-03-21T12:38:27.228Z,2.80
2023-03-21T12:39:40.885Z,2.65
2023-03-21T12:40:51.510Z,3.42
2023-03-21T12:42:14.078Z,3.05
2023-03-21T12:43:57.192Z,2.90
2023-03-21T12:45:15.769Z,2.55
2023-03-21T12:46:42.518Z,3.05
2023-03-21T12:47:49.751Z,2.45
2023-03-21T12:49:08.060Z,2.45
2023-03-21T12:50:19.522Z,3.35
2023-03-21T12:51:26.875Z,2.75
2023-03-21T12:52:35.894Z,3.20
2023-03-21T12:53:48.220Z,2.97
2023-03-21T12:54:54.851Z,3.13
2023-03-21T12:56:01.780Z,2.83
2023-03-21T12:57:27.620Z,2.88
2023-03-21T12:58:31.324Z,3.00
2023-03-21T12:59:42.035Z,2.80
2023-03-21T13:00:47.211Z,3.45
2023-03-21T13:01:51.596Z,2.85
2023-03-21T13:03:00.502Z,2.92
2023-03-21T13:05:29.638Z,2.15
2023-03-21T13:06:31.718Z,3.17
2023-03-21T13:07:38.858Z,2.92
2023-03-21T13:09:10.402Z,2.25
2023-03-21T13:10:15.479Z,2.60
2023-03-21T13:11:21.268Z,2.60
2023-03-21T13:12:44.168Z,2.85
2023-03-21T13:14:06.346Z,3.60
2023-03-21T13:15:23.682Z,2.90
2023-03-21T13:16:45.223Z,3.65
2023-03-21T13:17:56.838Z,3.20
2023-03-21T13:19:23.087Z,2.97
2023-03-21T13:20:45.015Z,3.25
2023-03-21T13:21:49.582Z,2.83
2023-03-21T13:22:51.206Z,2.42
2023-03-21T13:24:25.525Z,2.42
2023-03-21T13:25:33.330Z,3.30
2023-03-21T13:26:40.930Z,2.80
2023-03-21T13:27:44.197Z,2.75
2023-03-21T13:28:48.343Z,2.63
2023-03-21T13:29:52.462Z,3.15
2023-03-21T13:31:14.484Z,3.50
2023-03-21T13:32:21.919Z,3.92
2023-03-21T13:33:29.701Z,4.25
2023-03-21T13:34:31.606Z,3.45
2023-03-21T13:35:38.566Z,4.05
2023-03-21T13:36:42.181Z,4.32
2023-03-21T13:38:09.046Z,4.05
2023-03-21T13:39:19.806Z,4.20
2023-03-21T13:40:28.672Z,4.07
2023-03-21T13:41:32.477Z,3.65
2023-03-21T13:42:34.109Z,3.80
2023-03-21T13:43:53.869Z,3.72
2023-03-21T13:45:00.097Z,3.08
2023-03-21T13:46:46.685Z,2.80
2023-03-21T13:47:59.791Z,3.80
2023-03-21T13:49:02.794Z,3.72
2023-03-21T13:50:19.437Z,3.63
2023-03-21T13:51:29.900Z,4.45
2023-03-21T13:52:31.525Z,4.20
2023-03-21T13:53:36.735Z,4.10
2023-03-21T13:54:44.151Z,3.70
2023-03-21T13:55:49.255Z,4.53
2023-03-21T13:56:54.482Z,5.00
2023-03-21T13:57:56.316Z,4.57
2023-03-21T13:59:00.919Z,4.30
2023-03-21T14:00:20.303Z,4.30
2023-03-21T14:01:35.185Z,4.38
2023-03-21T14:02:39.438Z,4.40
2023-03-21T14:03:42.143Z,4.13
2023-03-21T14:05:03.626Z,3.78
2023-03-21T14:06:08.318Z,5.10
2023-03-21T14:07:20.885Z,4.95
2023-03-21T14:08:36.570Z,4.38
2023-03-21T14:09:49.285Z,4.80
2023-03-21T14:10:56.069Z,3.72
2023-03-21T14:12:07.100Z,3.83
2023-03-21T14:13:16.304Z,3.60
2023-03-21T14:14:20.916Z,3.35
2023-03-21T14:15:56.032Z,3.63
2023-03-21T14:16:58.258Z,3.67
2023-03-21T14:18:15.889Z,3.90
2023-03-21T14:19:32.881Z,3.67
2023-03-21T14:21:50.362Z,3.92
2023-03-21T14:22:52.545Z,4.28
2023-03-21T14:24:12.561Z,3.70
2023-03-21T14:25:17.697Z,3.63
2023-03-21T14:26:19.795Z,4.20
2023-03-21T14:27:22.570Z,3.83
2023-03-21T14:29:31.988Z,4.32
2023-03-21T14:30:36.268Z,4.88
2023-03-21T14:31:39.706Z,4.22
2023-03-21T14:32:42.766Z,4.15
2023-03-21T14:33:53.454Z,3.88
2023-03-21T14:34:56.302Z,4.35
2023-03-21T14:37:07.837Z,3.33
2023-03-21T14:38:20.908Z,4.05
2023-03-21T14:39:26.509Z,2.80
2023-03-21T14:40:29.357Z,3.60
2023-03-21T14:42:38.142Z,3.22
2023-03-21T14:43:39.814Z,3.28
2023-03-21T14:44:54.953Z,3.55
2023-03-21T14:45:57.552Z,3.25
2023-03-21T14:47:06.767Z,3.53